CNL4 weather

Port Elgin Airport
Port Elgin, Ontario, Canada

Public forecast

Using degrees Celsius for public forecast. Weather courtesy of forecast.io.

METAR (pilot weather report)

Closest report is Wiarton Airport, 23.8 nm (44.1 km) NNE. Retrieved 2019/05/23 02:00 UTC (39 minutes ago):

CYVV 230200Z 10005KT 20SM FEW070 BKN250 10/05 A3001 RMK AC1CI4 SLP166

TAF (pilot weather forecast)

Forecast is more than 6 hours old.

Closest forecast is Wiarton Airport, 23.8 nm (44.1 km) NNE. Retrieved 2019/05/22 20:00 UTC (7 hours ago):

TAF CYVV 221938Z 2220/2223 13012G22KT P6SM OVC060 TEMPO 2220/2223 P6SM -SHRA RMK NXT FCST WILL BE ISSUED AT 231045Z